Skip Navigation Links
NOAA logo - Click to go to the NOAA homepage
NOAA's National Weather Service
Alaska Aviation Weather Unit
  NWS logo - Click to go to the NWS homepage
Left Navbar Graphic     00 AKDT = 08 GMT

   
NOAA is celebrating 200 years of science, service, and stewardship. Visit the NOAA 200th celebration Web site to learn more.
USA.gov is the U.S. Government's official Web portal to all Federal, state and local government Web resources and services.
Facebook
NWS on Facebook

Important Change Regarding the AAWU Web Presence

 

Over the last several months, the AAWU has been working to navigate its webpages to a nationally supported server. Security, as well as other needs, have necessitated the change.  We have been given an extension for the site changeover while we diligently work at addressing feedback received. As of July 14, 2017, aawu.arh.noaa.gov will be discontinued. The new AAWU web address is weather.gov/aawu. It is now live and will run in-parallel with the old site until it is discontinued on July 14, 2017. Please continue to send any feedback or questions regarding the new webpages to nws.ar.aawu.webauthors@noaa.gov.  Thank you for your patience during this time of transition.
AAWU Home :: Display TAF Add Bookmark
TAF PADU 240543Z 2406/2506  29012KT P6SM -SHRA OVC035=

4706
FTAK31 PANC 240543
TAFAIL
TAF

METAR PADU 240256Z 30014KT 10SM OVC035 08/03 A2981 RMK AO2 SLP095 T00830028 56009= METAR PADU 240356Z 30013KT 10SM BKN043 08/02 A2980 RMK AO2 SLP092 RH T00830017= METAR PADU 240456Z 28008KT 10SM OVC038 08/03 A2980 RMK AO2 SLP092 LAST RH T00830033= METAR PADU 240556Z AUTO 26005KT 10SM OVC046 08/03 A2979 RMK AO2 SLP089 T00780033 10089 20078 57006= METAR PADU 240656Z AUTO 30008KT 10SM BKN028 OVC036 08/04 A2980 RMK AO2 RAB21E44 SLP092 P0000 T00780039= SPECI PADU 240711Z AUTO 29009KT 10SM OVC032 08/03 A2980 RMK AO2= METAR PADU 240756Z AUTO 26004KT 10SM SCT036 OVC043 08/03 A2980 RMK AO2 SLP092 T00780028=
 Alaska TAF Map

NOAA's National Weather Service
Alaska Aviation Weather Unit
6930 Sand Lake Road
Anchorage, AK 99502-1845
Disclaimer
Credits
Glossary
Privacy Policy
About Us
Career Opportunities
Contact AAWU Internet Services Site last modified: April, 17th 2012